Agartala Airport

Airport
ICAO code: 
VEAT
Summary
ICAO Region: 
APAC
Territory: 
Location: 
Agartala, Tripura,
Coordinates: 
Aerial View: 
23° 53' 33.654" N, 91° 14' 38.265" E
Airport WX: 
Tropical Revolving Storm
Metar
Observation
VEAT 270800Z 00000KT 4000 HZ NSC 28/15 Q1013 NOSIG
Station
Agartala
Date/Time
2021-11-27 08:00:00
Wind direction
Wind speed
00 kts
Lowest cloud amount
nil significant cloud
Temperature
28°C
Dew point
15°C
Humidity
45%
QNH
1013 hPa
Weather condition
n/a

Description

Agartala Airport is a commercial airport located 12 km northwest of the city of Agartala, the capital of the state of Tripura.

Climatology

Tropical Savanna climate (Köppen climate classification Aw) - monthly mean temperatures above 18°C, and a pronounced dry season. A Tropical Savanna climate has more pronounced dry seasons than a Tropical Monsoon climate.

Runways

Designator Length Width Surface Rops
5/23 0 0 UNK No/No
18/36 2286 45 ASP Yes/Yes
Airport map: 
Aerial View: 

SKYbrary Partners:

Safety knowledge contributed by: